sensor_id;sensor_type;location;lat;lon;timestamp;P1;durP1;ratioP1;P2;durP2;ratioP2
38312;SDS011;24114;52.260;6.714;2022-11-20T00:02:14;37.85;;;27.17;;
38312;SDS011;24114;52.260;6.714;2022-11-20T00:04:42;37.30;;;27.55;;
38312;SDS011;24114;52.260;6.714;2022-11-20T00:07:09;36.20;;;24.67;;
38312;SDS011;24114;52.260;6.714;2022-11-20T00:09:39;34.63;;;23.63;;
38312;SDS011;24114;52.260;6.714;2022-11-20T00:12:06;26.13;;;18.48;;
38312;SDS011;24114;52.260;6.714;2022-11-20T00:14:34;23.75;;;17.80;;
38312;SDS011;24114;52.260;6.714;2022-11-20T00:17:02;23.40;;;17.65;;
38312;SDS011;24114;52.260;6.714;2022-11-20T00:19:29;24.48;;;18.25;;
38312;SDS011;24114;52.260;6.714;2022-11-20T00:21:57;23.58;;;17.95;;
38312;SDS011;24114;52.260;6.714;2022-11-20T00:24:25;24.02;;;17.38;;
38312;SDS011;24114;52.260;6.714;2022-11-20T00:26:54;26.13;;;19.02;;
38312;SDS011;24114;52.260;6.714;2022-11-20T00:29:22;25.70;;;18.38;;
38312;SDS011;24114;52.260;6.714;2022-11-20T00:31:49;23.83;;;18.77;;
38312;SDS011;24114;52.260;6.714;2022-11-20T00:34:17;20.35;;;17.15;;
38312;SDS011;24114;52.260;6.714;2022-11-20T00:36:45;25.13;;;18.30;;
38312;SDS011;24114;52.260;6.714;2022-11-20T00:39:12;22.23;;;16.92;;
38312;SDS011;24114;52.260;6.714;2022-11-20T00:41:40;21.08;;;16.67;;
38312;SDS011;24114;52.260;6.714;2022-11-20T00:44:09;21.60;;;15.90;;
38312;SDS011;24114;52.260;6.714;2022-11-20T00:46:37;24.15;;;16.98;;
38312;SDS011;24114;52.260;6.714;2022-11-20T00:49:04;22.90;;;16.70;;
38312;SDS011;24114;52.260;6.714;2022-11-20T00:51:32;23.00;;;17.50;;
38312;SDS011;24114;52.260;6.714;2022-11-20T00:54:00;21.65;;;15.90;;
38312;SDS011;24114;52.260;6.714;2022-11-20T00:56:28;22.90;;;17.25;;
38312;SDS011;24114;52.260;6.714;2022-11-20T00:58:58;26.67;;;17.33;;
38312;SDS011;24114;52.260;6.714;2022-11-20T01:01:28;23.25;;;17.85;;
38312;SDS011;24114;52.260;6.714;2022-11-20T01:03:57;26.15;;;19.38;;
38312;SDS011;24114;52.260;6.714;2022-11-20T01:06:26;25.80;;;19.33;;
38312;SDS011;24114;52.260;6.714;2022-11-20T01:08:55;26.85;;;19.50;;
38312;SDS011;24114;52.260;6.714;2022-11-20T01:11:25;24.15;;;18.80;;
38312;SDS011;24114;52.260;6.714;2022-11-20T01:13:53;24.23;;;18.77;;
38312;SDS011;24114;52.260;6.714;2022-11-20T01:16:22;23.60;;;17.70;;
38312;SDS011;24114;52.260;6.714;2022-11-20T01:18:53;21.63;;;16.92;;
38312;SDS011;24114;52.260;6.714;2022-11-20T01:21:21;25.95;;;17.33;;
38312;SDS011;24114;52.260;6.714;2022-11-20T01:23:51;22.25;;;16.77;;
38312;SDS011;24114;52.260;6.714;2022-11-20T01:26:19;43.08;;;26.92;;
38312;SDS011;24114;52.260;6.714;2022-11-20T01:28:48;29.20;;;20.70;;
38312;SDS011;24114;52.260;6.714;2022-11-20T01:31:17;29.30;;;19.48;;
38312;SDS011;24114;52.260;6.714;2022-11-20T01:33:46;25.27;;;19.67;;
38312;SDS011;24114;52.260;6.714;2022-11-20T01:36:17;28.05;;;19.58;;
38312;SDS011;24114;52.260;6.714;2022-11-20T01:38:45;25.33;;;19.13;;
38312;SDS011;24114;52.260;6.714;2022-11-20T01:41:13;24.80;;;19.98;;
38312;SDS011;24114;52.260;6.714;2022-11-20T01:44:02;26.35;;;19.40;;
38312;SDS011;24114;52.260;6.714;2022-11-20T01:46:30;30.10;;;21.77;;
38312;SDS011;24114;52.260;6.714;2022-11-20T01:48:58;30.88;;;22.58;;
38312;SDS011;24114;52.260;6.714;2022-11-20T01:51:30;27.38;;;20.45;;
38312;SDS011;24114;52.260;6.714;2022-11-20T01:54:01;29.38;;;21.17;;
38312;SDS011;24114;52.260;6.714;2022-11-20T01:56:31;25.83;;;20.38;;
38312;SDS011;24114;52.260;6.714;2022-11-20T01:59:03;24.80;;;18.83;;
38312;SDS011;24114;52.260;6.714;2022-11-20T02:01:32;24.40;;;19.63;;
38312;SDS011;24114;52.260;6.714;2022-11-20T02:04:00;24.73;;;18.88;;
38312;SDS011;24114;52.260;6.714;2022-11-20T02:06:30;29.77;;;20.83;;
38312;SDS011;24114;52.260;6.714;2022-11-20T02:09:01;25.83;;;19.95;;
38312;SDS011;24114;52.260;6.714;2022-11-20T02:11:29;24.88;;;19.88;;
38312;SDS011;24114;52.260;6.714;2022-11-20T02:13:57;26.63;;;20.33;;
38312;SDS011;24114;52.260;6.714;2022-11-20T02:16:25;25.98;;;19.92;;
38312;SDS011;24114;52.260;6.714;2022-11-20T02:18:54;26.38;;;19.90;;
38312;SDS011;24114;52.260;6.714;2022-11-20T02:21:28;24.92;;;19.85;;
38312;SDS011;24114;52.260;6.714;2022-11-20T02:24:02;24.88;;;19.55;;
38312;SDS011;24114;52.260;6.714;2022-11-20T02:26:31;24.60;;;19.38;;
38312;SDS011;24114;52.260;6.714;2022-11-20T02:29:01;26.38;;;20.13;;
38312;SDS011;24114;52.260;6.714;2022-11-20T02:31:34;27.55;;;20.02;;
38312;SDS011;24114;52.260;6.714;2022-11-20T02:34:03;23.58;;;17.63;;
38312;SDS011;24114;52.260;6.714;2022-11-20T02:36:31;21.73;;;17.13;;
38312;SDS011;24114;52.260;6.714;2022-11-20T02:39:02;22.30;;;16.20;;
38312;SDS011;24114;52.260;6.714;2022-11-20T02:41:31;21.45;;;15.48;;
38312;SDS011;24114;52.260;6.714;2022-11-20T02:44:00;20.50;;;15.57;;
38312;SDS011;24114;52.260;6.714;2022-11-20T02:46:28;20.45;;;16.08;;
38312;SDS011;24114;52.260;6.714;2022-11-20T02:48:56;18.55;;;15.43;;
38312;SDS011;24114;52.260;6.714;2022-11-20T02:51:23;24.50;;;16.90;;
38312;SDS011;24114;52.260;6.714;2022-11-20T02:53:51;21.98;;;17.38;;
38312;SDS011;24114;52.260;6.714;2022-11-20T02:56:20;21.13;;;15.90;;
38312;SDS011;24114;52.260;6.714;2022-11-20T02:58:48;19.85;;;15.57;;
38312;SDS011;24114;52.260;6.714;2022-11-20T03:01:16;21.42;;;16.60;;
38312;SDS011;24114;52.260;6.714;2022-11-20T03:03:43;19.90;;;15.65;;
38312;SDS011;24114;52.260;6.714;2022-11-20T03:06:11;21.38;;;15.45;;
38312;SDS011;24114;52.260;6.714;2022-11-20T03:08:40;18.95;;;15.55;;
38312;SDS011;24114;52.260;6.714;2022-11-20T03:11:07;20.02;;;15.43;;
38312;SDS011;24114;52.260;6.714;2022-11-20T03:13:37;20.08;;;15.32;;
38312;SDS011;24114;52.260;6.714;2022-11-20T03:16:08;20.90;;;15.75;;
38312;SDS011;24114;52.260;6.714;2022-11-20T03:18:37;20.80;;;15.77;;
38312;SDS011;24114;52.260;6.714;2022-11-20T03:21:06;20.80;;;15.55;;
38312;SDS011;24114;52.260;6.714;2022-11-20T03:23:33;21.65;;;16.08;;
38312;SDS011;24114;52.260;6.714;2022-11-20T03:26:08;18.15;;;14.85;;
38312;SDS011;24114;52.260;6.714;2022-11-20T03:28:38;20.80;;;15.52;;
38312;SDS011;24114;52.260;6.714;2022-11-20T03:31:07;21.77;;;16.13;;
38312;SDS011;24114;52.260;6.714;2022-11-20T03:33:36;21.00;;;16.42;;
38312;SDS011;24114;52.260;6.714;2022-11-20T03:36:04;18.70;;;15.65;;
38312;SDS011;24114;52.260;6.714;2022-11-20T03:38:32;20.00;;;14.95;;
38312;SDS011;24114;52.260;6.714;2022-11-20T03:41:00;20.17;;;14.57;;
38312;SDS011;24114;52.260;6.714;2022-11-20T03:43:29;19.73;;;14.82;;
38312;SDS011;24114;52.260;6.714;2022-11-20T03:45:58;21.80;;;16.50;;
38312;SDS011;24114;52.260;6.714;2022-11-20T03:48:26;20.63;;;16.27;;
38312;SDS011;24114;52.260;6.714;2022-11-20T03:51:05;19.65;;;16.35;;
38312;SDS011;24114;52.260;6.714;2022-11-20T03:53:34;21.38;;;15.80;;
38312;SDS011;24114;52.260;6.714;2022-11-20T03:56:02;19.17;;;14.90;;
38312;SDS011;24114;52.260;6.714;2022-11-20T03:58:30;19.35;;;15.07;;
38312;SDS011;24114;52.260;6.714;2022-11-20T04:01:03;18.58;;;14.73;;
38312;SDS011;24114;52.260;6.714;2022-11-20T04:03:31;19.88;;;14.55;;
38312;SDS011;24114;52.260;6.714;2022-11-20T04:06:01;20.50;;;14.73;;
38312;SDS011;24114;52.260;6.714;2022-11-20T04:08:29;19.63;;;15.05;;
38312;SDS011;24114;52.260;6.714;2022-11-20T04:11:07;19.35;;;15.48;;
38312;SDS011;24114;52.260;6.714;2022-11-20T04:13:35;18.35;;;14.50;;
38312;SDS011;24114;52.260;6.714;2022-11-20T04:16:05;20.83;;;14.60;;
38312;SDS011;24114;52.260;6.714;2022-11-20T04:18:33;19.13;;;14.35;;
38312;SDS011;24114;52.260;6.714;2022-11-20T04:21:02;18.83;;;15.23;;
38312;SDS011;24114;52.260;6.714;2022-11-20T04:23:30;19.42;;;14.68;;
38312;SDS011;24114;52.260;6.714;2022-11-20T04:26:00;16.92;;;13.93;;
38312;SDS011;24114;52.260;6.714;2022-11-20T04:28:29;19.00;;;14.45;;
38312;SDS011;24114;52.260;6.714;2022-11-20T04:31:05;18.85;;;13.68;;
38312;SDS011;24114;52.260;6.714;2022-11-20T04:33:34;18.45;;;14.48;;
38312;SDS011;24114;52.260;6.714;2022-11-20T04:36:03;17.98;;;14.18;;
38312;SDS011;24114;52.260;6.714;2022-11-20T04:38:31;17.85;;;13.35;;
38312;SDS011;24114;52.260;6.714;2022-11-20T04:40:59;20.60;;;15.23;;
38312;SDS011;24114;52.260;6.714;2022-11-20T04:43:28;19.42;;;14.82;;
38312;SDS011;24114;52.260;6.714;2022-11-20T04:45:56;19.20;;;14.68;;
38312;SDS011;24114;52.260;6.714;2022-11-20T04:48:26;19.40;;;15.38;;
38312;SDS011;24114;52.260;6.714;2022-11-20T04:50:55;17.35;;;14.35;;
38312;SDS011;24114;52.260;6.714;2022-11-20T04:53:23;20.80;;;15.80;;
38312;SDS011;24114;52.260;6.714;2022-11-20T04:55:51;19.45;;;15.25;;
38312;SDS011;24114;52.260;6.714;2022-11-20T04:58:18;18.55;;;14.80;;
38312;SDS011;24114;52.260;6.714;2022-11-20T05:00:46;18.75;;;15.20;;
38312;SDS011;24114;52.260;6.714;2022-11-20T05:03:14;19.48;;;15.30;;
38312;SDS011;24114;52.260;6.714;2022-11-20T05:05:43;19.23;;;14.73;;
38312;SDS011;24114;52.260;6.714;2022-11-20T05:08:10;18.42;;;15.52;;
38312;SDS011;24114;52.260;6.714;2022-11-20T05:10:38;19.98;;;14.88;;
38312;SDS011;24114;52.260;6.714;2022-11-20T05:13:06;19.95;;;14.90;;
38312;SDS011;24114;52.260;6.714;2022-11-20T05:15:33;18.25;;;15.00;;
38312;SDS011;24114;52.260;6.714;2022-11-20T05:18:01;19.38;;;14.82;;
38312;SDS011;24114;52.260;6.714;2022-11-20T05:20:29;18.75;;;14.85;;
38312;SDS011;24114;52.260;6.714;2022-11-20T05:22:58;20.00;;;15.27;;
38312;SDS011;24114;52.260;6.714;2022-11-20T05:25:26;19.63;;;14.68;;
38312;SDS011;24114;52.260;6.714;2022-11-20T05:27:53;21.10;;;15.82;;
38312;SDS011;24114;52.260;6.714;2022-11-20T05:30:21;21.20;;;14.95;;
38312;SDS011;24114;52.260;6.714;2022-11-20T05:32:49;18.98;;;14.88;;
38312;SDS011;24114;52.260;6.714;2022-11-20T05:35:16;19.67;;;14.93;;
38312;SDS011;24114;52.260;6.714;2022-11-20T05:37:44;18.88;;;14.75;;
38312;SDS011;24114;52.260;6.714;2022-11-20T05:40:13;20.50;;;15.13;;
38312;SDS011;24114;52.260;6.714;2022-11-20T05:42:41;21.77;;;15.55;;
38312;SDS011;24114;52.260;6.714;2022-11-20T05:45:09;20.83;;;14.82;;
38312;SDS011;24114;52.260;6.714;2022-11-20T05:47:37;20.95;;;16.23;;
38312;SDS011;24114;52.260;6.714;2022-11-20T05:50:05;19.88;;;15.15;;
38312;SDS011;24114;52.260;6.714;2022-11-20T05:52:33;19.05;;;14.82;;
38312;SDS011;24114;52.260;6.714;2022-11-20T05:55:01;19.80;;;15.35;;
38312;SDS011;24114;52.260;6.714;2022-11-20T05:57:30;21.33;;;16.58;;
38312;SDS011;24114;52.260;6.714;2022-11-20T05:59:58;22.90;;;15.90;;
38312;SDS011;24114;52.260;6.714;2022-11-20T06:02:25;21.63;;;16.50;;
38312;SDS011;24114;52.260;6.714;2022-11-20T06:04:53;22.35;;;17.20;;
38312;SDS011;24114;52.260;6.714;2022-11-20T06:07:21;21.67;;;16.40;;
38312;SDS011;24114;52.260;6.714;2022-11-20T06:09:49;24.20;;;16.90;;
38312;SDS011;24114;52.260;6.714;2022-11-20T06:12:16;21.92;;;15.88;;
38312;SDS011;24114;52.260;6.714;2022-11-20T06:14:46;21.50;;;16.83;;
38312;SDS011;24114;52.260;6.714;2022-11-20T06:17:13;23.30;;;15.55;;
38312;SDS011;24114;52.260;6.714;2022-11-20T06:19:41;20.80;;;16.10;;
38312;SDS011;24114;52.260;6.714;2022-11-20T06:22:09;20.35;;;15.40;;
38312;SDS011;24114;52.260;6.714;2022-11-20T06:24:36;22.63;;;16.40;;
38312;SDS011;24114;52.260;6.714;2022-11-20T06:27:04;20.98;;;15.35;;
38312;SDS011;24114;52.260;6.714;2022-11-20T06:29:32;22.38;;;16.17;;
38312;SDS011;24114;52.260;6.714;2022-11-20T06:32:01;21.70;;;15.63;;
38312;SDS011;24114;52.260;6.714;2022-11-20T06:34:29;20.55;;;15.80;;
38312;SDS011;24114;52.260;6.714;2022-11-20T06:36:56;20.98;;;15.40;;
38312;SDS011;24114;52.260;6.714;2022-11-20T06:39:24;20.40;;;14.93;;
38312;SDS011;24114;52.260;6.714;2022-11-20T06:41:52;20.70;;;15.82;;
38312;SDS011;24114;52.260;6.714;2022-11-20T06:44:24;22.17;;;16.17;;
38312;SDS011;24114;52.260;6.714;2022-11-20T06:46:52;21.98;;;16.80;;
38312;SDS011;24114;52.260;6.714;2022-11-20T06:49:21;23.27;;;16.88;;
38312;SDS011;24114;52.260;6.714;2022-11-20T06:51:49;22.35;;;16.33;;
38312;SDS011;24114;52.260;6.714;2022-11-20T06:54:17;23.55;;;16.77;;
38312;SDS011;24114;52.260;6.714;2022-11-20T06:56:46;24.50;;;18.27;;
38312;SDS011;24114;52.260;6.714;2022-11-20T06:59:14;24.23;;;18.30;;
38312;SDS011;24114;52.260;6.714;2022-11-20T07:01:41;25.42;;;17.98;;
38312;SDS011;24114;52.260;6.714;2022-11-20T07:04:09;22.35;;;17.15;;
38312;SDS011;24114;52.260;6.714;2022-11-20T07:06:38;24.77;;;17.58;;
38312;SDS011;24114;52.260;6.714;2022-11-20T07:09:06;26.88;;;19.40;;
38312;SDS011;24114;52.260;6.714;2022-11-20T07:11:47;22.98;;;17.52;;
38312;SDS011;24114;52.260;6.714;2022-11-20T07:14:15;20.45;;;16.10;;
38312;SDS011;24114;52.260;6.714;2022-11-20T07:16:42;22.90;;;16.73;;
38312;SDS011;24114;52.260;6.714;2022-11-20T07:19:10;20.70;;;16.63;;
38312;SDS011;24114;52.260;6.714;2022-11-20T07:21:39;21.30;;;16.25;;
38312;SDS011;24114;52.260;6.714;2022-11-20T07:24:07;22.08;;;16.70;;
38312;SDS011;24114;52.260;6.714;2022-11-20T07:26:34;23.48;;;16.65;;
38312;SDS011;24114;52.260;6.714;2022-11-20T07:29:02;21.52;;;16.27;;
38312;SDS011;24114;52.260;6.714;2022-11-20T07:31:30;29.30;;;21.73;;
38312;SDS011;24114;52.260;6.714;2022-11-20T07:33:58;26.35;;;20.27;;
38312;SDS011;24114;52.260;6.714;2022-11-20T07:36:26;23.33;;;16.98;;
38312;SDS011;24114;52.260;6.714;2022-11-20T07:38:55;22.40;;;17.10;;
38312;SDS011;24114;52.260;6.714;2022-11-20T07:41:23;23.65;;;18.27;;
38312;SDS011;24114;52.260;6.714;2022-11-20T07:43:50;21.45;;;16.77;;
38312;SDS011;24114;52.260;6.714;2022-11-20T07:46:18;23.02;;;16.67;;
38312;SDS011;24114;52.260;6.714;2022-11-20T07:48:46;19.40;;;15.40;;
38312;SDS011;24114;52.260;6.714;2022-11-20T07:51:13;20.90;;;15.57;;
38312;SDS011;24114;52.260;6.714;2022-11-20T07:53:41;20.38;;;14.93;;
38312;SDS011;24114;52.260;6.714;2022-11-20T07:56:10;18.17;;;14.43;;
38312;SDS011;24114;52.260;6.714;2022-11-20T07:58:40;22.25;;;16.55;;
38312;SDS011;24114;52.260;6.714;2022-11-20T08:01:08;24.90;;;18.83;;
38312;SDS011;24114;52.260;6.714;2022-11-20T08:03:36;24.52;;;18.52;;
38312;SDS011;24114;52.260;6.714;2022-11-20T08:06:05;23.17;;;16.67;;
38312;SDS011;24114;52.260;6.714;2022-11-20T08:08:34;32.97;;;22.92;;
38312;SDS011;24114;52.260;6.714;2022-11-20T08:11:07;24.65;;;19.58;;
38312;SDS011;24114;52.260;6.714;2022-11-20T08:13:54;25.10;;;19.95;;
38312;SDS011;24114;52.260;6.714;2022-11-20T08:16:40;24.02;;;18.88;;
38312;SDS011;24114;52.260;6.714;2022-11-20T08:19:09;25.92;;;18.83;;
38312;SDS011;24114;52.260;6.714;2022-11-20T08:21:37;25.05;;;17.92;;
38312;SDS011;24114;52.260;6.714;2022-11-20T08:24:05;26.75;;;18.73;;
38312;SDS011;24114;52.260;6.714;2022-11-20T08:26:33;25.55;;;19.77;;
38312;SDS011;24114;52.260;6.714;2022-11-20T08:29:03;27.90;;;18.55;;
38312;SDS011;24114;52.260;6.714;2022-11-20T08:31:31;24.73;;;18.13;;
38312;SDS011;24114;52.260;6.714;2022-11-20T08:33:59;24.85;;;18.48;;
38312;SDS011;24114;52.260;6.714;2022-11-20T08:36:34;25.90;;;18.77;;
38312;SDS011;24114;52.260;6.714;2022-11-20T08:39:02;24.80;;;18.35;;
38312;SDS011;24114;52.260;6.714;2022-11-20T08:41:30;25.98;;;18.25;;
38312;SDS011;24114;52.260;6.714;2022-11-20T08:44:00;23.85;;;18.48;;
38312;SDS011;24114;52.260;6.714;2022-11-20T08:46:31;23.15;;;18.52;;
38312;SDS011;24114;52.260;6.714;2022-11-20T08:49:00;24.27;;;19.30;;
38312;SDS011;24114;52.260;6.714;2022-11-20T08:51:28;24.63;;;19.38;;
38312;SDS011;24114;52.260;6.714;2022-11-20T08:53:55;26.02;;;19.27;;
38312;SDS011;24114;52.260;6.714;2022-11-20T08:56:23;24.70;;;19.55;;
38312;SDS011;24114;52.260;6.714;2022-11-20T08:58:51;23.83;;;18.80;;
38312;SDS011;24114;52.260;6.714;2022-11-20T09:01:40;24.55;;;19.75;;
38312;SDS011;24114;52.260;6.714;2022-11-20T09:04:08;25.55;;;19.17;;
38312;SDS011;24114;52.260;6.714;2022-11-20T09:06:35;25.33;;;19.45;;
38312;SDS011;24114;52.260;6.714;2022-11-20T09:09:03;23.15;;;18.75;;
38312;SDS011;24114;52.260;6.714;2022-11-20T09:11:32;29.35;;;18.25;;
38312;SDS011;24114;52.260;6.714;2022-11-20T09:14:00;24.63;;;19.05;;
38312;SDS011;24114;52.260;6.714;2022-11-20T09:16:28;25.40;;;19.42;;
38312;SDS011;24114;52.260;6.714;2022-11-20T09:18:57;24.42;;;18.33;;
38312;SDS011;24114;52.260;6.714;2022-11-20T09:21:45;24.40;;;18.88;;
38312;SDS011;24114;52.260;6.714;2022-11-20T09:24:13;24.38;;;18.73;;
38312;SDS011;24114;52.260;6.714;2022-11-20T09:26:40;25.08;;;18.13;;
38312;SDS011;24114;52.260;6.714;2022-11-20T09:29:08;27.33;;;21.30;;
38312;SDS011;24114;52.260;6.714;2022-11-20T09:31:36;27.08;;;20.95;;
38312;SDS011;24114;52.260;6.714;2022-11-20T09:34:05;25.58;;;19.95;;
38312;SDS011;24114;52.260;6.714;2022-11-20T09:36:33;28.55;;;20.85;;
38312;SDS011;24114;52.260;6.714;2022-11-20T09:39:00;26.95;;;20.92;;
38312;SDS011;24114;52.260;6.714;2022-11-20T09:44:34;24.30;;;19.45;;
38312;SDS011;24114;52.260;6.714;2022-11-20T09:47:08;28.20;;;23.38;;
38312;SDS011;24114;52.260;6.714;2022-11-20T09:49:46;25.63;;;20.45;;
38312;SDS011;24114;52.260;6.714;2022-11-20T09:52:26;23.15;;;19.20;;
38312;SDS011;24114;52.260;6.714;2022-11-20T09:55:00;22.85;;;18.35;;
38312;SDS011;24114;52.260;6.714;2022-11-20T09:57:32;22.10;;;18.15;;
38312;SDS011;24114;52.260;6.714;2022-11-20T10:00:03;25.42;;;19.48;;
38312;SDS011;24114;52.260;6.714;2022-11-20T10:02:35;23.45;;;18.90;;
38312;SDS011;24114;52.260;6.714;2022-11-20T10:05:09;25.20;;;18.70;;
38312;SDS011;24114;52.260;6.714;2022-11-20T10:07:41;25.85;;;19.40;;
38312;SDS011;24114;52.260;6.714;2022-11-20T10:10:15;24.15;;;18.70;;
38312;SDS011;24114;52.260;6.714;2022-11-20T10:12:49;22.10;;;17.52;;
38312;SDS011;24114;52.260;6.714;2022-11-20T10:15:31;23.25;;;18.45;;
38312;SDS011;24114;52.260;6.714;2022-11-20T10:18:04;21.50;;;17.00;;
38312;SDS011;24114;52.260;6.714;2022-11-20T10:20:43;22.95;;;18.65;;
38312;SDS011;24114;52.260;6.714;2022-11-20T10:23:24;23.20;;;18.42;;
38312;SDS011;24114;52.260;6.714;2022-11-20T10:26:00;21.73;;;17.55;;
38312;SDS011;24114;52.260;6.714;2022-11-20T10:28:39;21.05;;;16.38;;
38312;SDS011;24114;52.260;6.714;2022-11-20T10:31:25;24.52;;;18.55;;
38312;SDS011;24114;52.260;6.714;2022-11-20T10:33:55;26.30;;;18.33;;
38312;SDS011;24114;52.260;6.714;2022-11-20T10:36:48;29.50;;;20.98;;
38312;SDS011;24114;52.260;6.714;2022-11-20T10:39:22;31.63;;;21.52;;
38312;SDS011;24114;52.260;6.714;2022-11-20T10:41:54;34.72;;;23.25;;
38312;SDS011;24114;52.260;6.714;2022-11-20T10:44:26;24.58;;;19.30;;
38312;SDS011;24114;52.260;6.714;2022-11-20T10:47:13;23.20;;;18.25;;
38312;SDS011;24114;52.260;6.714;2022-11-20T10:49:41;22.50;;;17.40;;
38312;SDS011;24114;52.260;6.714;2022-11-20T10:52:12;20.88;;;16.42;;
38312;SDS011;24114;52.260;6.714;2022-11-20T10:54:44;20.17;;;16.42;;
38312;SDS011;24114;52.260;6.714;2022-11-20T10:57:19;23.48;;;17.67;;
38312;SDS011;24114;52.260;6.714;2022-11-20T11:00:01;21.77;;;15.85;;
38312;SDS011;24114;52.260;6.714;2022-11-20T11:02:32;20.55;;;17.00;;
38312;SDS011;24114;52.260;6.714;2022-11-20T11:05:08;22.33;;;18.50;;
38312;SDS011;24114;52.260;6.714;2022-11-20T11:07:41;23.10;;;18.25;;
38312;SDS011;24114;52.260;6.714;2022-11-20T11:12:43;22.85;;;17.92;;
38312;SDS011;24114;52.260;6.714;2022-11-20T11:15:14;25.15;;;19.10;;
38312;SDS011;24114;52.260;6.714;2022-11-20T11:17:51;25.80;;;20.50;;
38312;SDS011;24114;52.260;6.714;2022-11-20T11:20:20;24.33;;;19.55;;
38312;SDS011;24114;52.260;6.714;2022-11-20T11:22:50;24.35;;;19.75;;
38312;SDS011;24114;52.260;6.714;2022-11-20T11:25:22;23.45;;;18.88;;
38312;SDS011;24114;52.260;6.714;2022-11-20T11:27:53;26.70;;;20.08;;
38312;SDS011;24114;52.260;6.714;2022-11-20T11:30:22;28.80;;;22.38;;
38312;SDS011;24114;52.260;6.714;2022-11-20T11:32:51;30.60;;;23.92;;
38312;SDS011;24114;52.260;6.714;2022-11-20T11:35:30;25.83;;;20.88;;
38312;SDS011;24114;52.260;6.714;2022-11-20T11:38:04;23.75;;;19.38;;
38312;SDS011;24114;52.260;6.714;2022-11-20T11:40:33;27.42;;;21.58;;
38312;SDS011;24114;52.260;6.714;2022-11-20T11:43:04;24.67;;;20.00;;
38312;SDS011;24114;52.260;6.714;2022-11-20T11:45:53;24.45;;;20.27;;
38312;SDS011;24114;52.260;6.714;2022-11-20T11:48:21;24.90;;;19.50;;
38312;SDS011;24114;52.260;6.714;2022-11-20T11:50:49;25.08;;;18.48;;
38312;SDS011;24114;52.260;6.714;2022-11-20T11:53:19;19.40;;;15.07;;
38312;SDS011;24114;52.260;6.714;2022-11-20T11:55:49;21.13;;;17.35;;
38312;SDS011;24114;52.260;6.714;2022-11-20T11:58:35;21.52;;;18.10;;
38312;SDS011;24114;52.260;6.714;2022-11-20T12:01:11;15.85;;;13.90;;
38312;SDS011;24114;52.260;6.714;2022-11-20T12:03:50;19.95;;;17.35;;
38312;SDS011;24114;52.260;6.714;2022-11-20T12:06:21;15.63;;;13.45;;
38312;SDS011;24114;52.260;6.714;2022-11-20T12:08:50;14.68;;;12.35;;
38312;SDS011;24114;52.260;6.714;2022-11-20T12:11:23;14.27;;;12.57;;
38312;SDS011;24114;52.260;6.714;2022-11-20T12:13:53;16.25;;;12.68;;
38312;SDS011;24114;52.260;6.714;2022-11-20T12:16:23;15.00;;;12.63;;
38312;SDS011;24114;52.260;6.714;2022-11-20T12:18:51;13.55;;;12.13;;
38312;SDS011;24114;52.260;6.714;2022-11-20T12:21:20;14.52;;;12.57;;
38312;SDS011;24114;52.260;6.714;2022-11-20T12:23:56;13.43;;;11.77;;
38312;SDS011;24114;52.260;6.714;2022-11-20T12:26:40;15.13;;;13.20;;
38312;SDS011;24114;52.260;6.714;2022-11-20T12:29:14;14.38;;;12.60;;
38312;SDS011;24114;52.260;6.714;2022-11-20T12:34:47;14.43;;;12.77;;
38312;SDS011;24114;52.260;6.714;2022-11-20T12:37:24;16.35;;;13.27;;
38312;SDS011;24114;52.260;6.714;2022-11-20T12:40:04;14.93;;;12.40;;
38312;SDS011;24114;52.260;6.714;2022-11-20T12:42:49;14.90;;;13.10;;
38312;SDS011;24114;52.260;6.714;2022-11-20T12:45:51;14.38;;;12.75;;
38312;SDS011;24114;52.260;6.714;2022-11-20T12:48:51;14.85;;;12.35;;
38312;SDS011;24114;52.260;6.714;2022-11-20T12:57:18;16.27;;;13.60;;
38312;SDS011;24114;52.260;6.714;2022-11-20T12:59:53;16.23;;;13.35;;
38312;SDS011;24114;52.260;6.714;2022-11-20T13:02:33;15.15;;;12.30;;
38312;SDS011;24114;52.260;6.714;2022-11-20T13:05:13;16.15;;;13.18;;
38312;SDS011;24114;52.260;6.714;2022-11-20T13:07:46;14.30;;;11.90;;
38312;SDS011;24114;52.260;6.714;2022-11-20T13:10:16;15.80;;;13.90;;
38312;SDS011;24114;52.260;6.714;2022-11-20T13:12:47;14.70;;;12.15;;
38312;SDS011;24114;52.260;6.714;2022-11-20T13:15:33;16.85;;;13.00;;
38312;SDS011;24114;52.260;6.714;2022-11-20T13:20:35;19.10;;;12.73;;
38312;SDS011;24114;52.260;6.714;2022-11-20T13:23:03;14.40;;;9.85;;
38312;SDS011;24114;52.260;6.714;2022-11-20T13:25:32;20.38;;;15.38;;
38312;SDS011;24114;52.260;6.714;2022-11-20T13:28:02;23.98;;;19.95;;
38312;SDS011;24114;52.260;6.714;2022-11-20T13:30:31;25.33;;;21.48;;
38312;SDS011;24114;52.260;6.714;2022-11-20T13:33:01;23.75;;;18.23;;
38312;SDS011;24114;52.260;6.714;2022-11-20T13:35:33;22.42;;;16.77;;
38312;SDS011;24114;52.260;6.714;2022-11-20T13:38:03;22.67;;;17.38;;
38312;SDS011;24114;52.260;6.714;2022-11-20T13:40:35;18.75;;;15.73;;
38312;SDS011;24114;52.260;6.714;2022-11-20T13:43:10;18.48;;;14.88;;
38312;SDS011;24114;52.260;6.714;2022-11-20T13:45:53;17.75;;;15.65;;
38312;SDS011;24114;52.260;6.714;2022-11-20T13:48:22;13.88;;;11.82;;
38312;SDS011;24114;52.260;6.714;2022-11-20T13:50:55;16.33;;;12.80;;
38312;SDS011;24114;52.260;6.714;2022-11-20T13:53:33;15.77;;;12.75;;
38312;SDS011;24114;52.260;6.714;2022-11-20T14:00:50;16.23;;;13.35;;
38312;SDS011;24114;52.260;6.714;2022-11-20T14:03:25;17.67;;;13.32;;
38312;SDS011;24114;52.260;6.714;2022-11-20T14:11:15;21.00;;;15.32;;
38312;SDS011;24114;52.260;6.714;2022-11-20T14:13:53;17.67;;;14.35;;
38312;SDS011;24114;52.260;6.714;2022-11-20T14:16:23;20.00;;;15.57;;
38312;SDS011;24114;52.260;6.714;2022-11-20T14:18:51;18.23;;;13.57;;
38312;SDS011;24114;52.260;6.714;2022-11-20T14:21:23;19.30;;;14.55;;
38312;SDS011;24114;52.260;6.714;2022-11-20T14:23:53;22.02;;;16.90;;
38312;SDS011;24114;52.260;6.714;2022-11-20T14:26:21;22.02;;;17.63;;
38312;SDS011;24114;52.260;6.714;2022-11-20T14:28:49;22.70;;;18.25;;
38312;SDS011;24114;52.260;6.714;2022-11-20T14:31:21;21.40;;;18.52;;
38312;SDS011;24114;52.260;6.714;2022-11-20T14:33:51;20.33;;;16.42;;
38312;SDS011;24114;52.260;6.714;2022-11-20T14:36:20;20.08;;;15.48;;
38312;SDS011;24114;52.260;6.714;2022-11-20T14:38:49;23.30;;;17.42;;
38312;SDS011;24114;52.260;6.714;2022-11-20T14:41:18;20.58;;;15.77;;
38312;SDS011;24114;52.260;6.714;2022-11-20T14:43:47;20.65;;;15.93;;
38312;SDS011;24114;52.260;6.714;2022-11-20T14:46:17;21.73;;;16.45;;
38312;SDS011;24114;52.260;6.714;2022-11-20T14:48:47;21.90;;;16.67;;
38312;SDS011;24114;52.260;6.714;2022-11-20T14:51:30;22.92;;;16.80;;
38312;SDS011;24114;52.260;6.714;2022-11-20T14:54:08;20.25;;;15.55;;
38312;SDS011;24114;52.260;6.714;2022-11-20T14:56:37;22.33;;;16.60;;
38312;SDS011;24114;52.260;6.714;2022-11-20T14:59:05;25.08;;;17.40;;
38312;SDS011;24114;52.260;6.714;2022-11-20T15:01:33;22.70;;;16.40;;
38312;SDS011;24114;52.260;6.714;2022-11-20T15:04:05;22.25;;;16.63;;
38312;SDS011;24114;52.260;6.714;2022-11-20T15:06:35;22.45;;;16.25;;
38312;SDS011;24114;52.260;6.714;2022-11-20T15:09:04;21.58;;;16.48;;